createdAt,value
2022-12-11T00:01:09.646Z,34.92
2022-12-11T00:02:11.754Z,37.47
2022-12-11T00:03:16.104Z,36.00
2022-12-11T00:04:18.348Z,35.03
2022-12-11T00:05:19.989Z,37.50
2022-12-11T00:06:23.422Z,38.58
2022-12-11T00:07:25.083Z,39.42
2022-12-11T00:08:27.000Z,37.00
2022-12-11T00:09:28.884Z,37.45
2022-12-11T00:10:34.626Z,35.35
2022-12-11T00:11:39.412Z,36.95
2022-12-11T00:12:41.313Z,37.10
2022-12-11T00:13:43.571Z,39.83
2022-12-11T00:14:45.184Z,41.30
2022-12-11T00:15:47.102Z,39.97
2022-12-11T00:16:50.073Z,37.95
2022-12-11T00:17:52.084Z,37.80
2022-12-11T00:18:56.395Z,41.60
2022-12-11T00:19:58.473Z,42.85
2022-12-11T00:21:04.893Z,43.20
2022-12-11T00:22:07.796Z,40.25
2022-12-11T00:23:11.475Z,40.95
2022-12-11T00:24:13.027Z,45.15
2022-12-11T00:25:14.856Z,42.95
2022-12-11T00:26:16.659Z,43.15
2022-12-11T00:27:19.005Z,43.72
2022-12-11T00:28:20.610Z,44.65
2022-12-11T00:29:22.180Z,51.55
2022-12-11T00:30:24.664Z,52.33
2022-12-11T00:31:29.275Z,63.95
2022-12-11T00:32:36.220Z,53.10
2022-12-11T00:33:39.553Z,42.85
2022-12-11T00:34:41.193Z,42.30
2022-12-11T00:35:46.216Z,48.17
2022-12-11T00:36:48.110Z,48.30
2022-12-11T00:37:49.717Z,46.65
2022-12-11T00:38:52.059Z,45.70
2022-12-11T00:39:53.892Z,63.40
2022-12-11T00:40:59.909Z,59.55
2022-12-11T00:42:01.880Z,49.03
2022-12-11T00:43:04.119Z,50.97
2022-12-11T00:44:05.825Z,42.53
2022-12-11T00:45:08.151Z,42.35
2022-12-11T00:46:10.686Z,39.80
2022-12-11T00:47:12.719Z,40.05
2022-12-11T00:48:14.501Z,46.97
2022-12-11T00:49:16.106Z,47.55
2022-12-11T00:50:19.309Z,43.00
2022-12-11T00:51:21.311Z,42.55
2022-12-11T00:52:23.330Z,38.80
2022-12-11T00:53:25.033Z,39.45
2022-12-11T00:54:26.667Z,40.92
2022-12-11T00:55:29.516Z,38.33
2022-12-11T00:56:31.201Z,37.72
2022-12-11T00:57:33.463Z,37.05
2022-12-11T00:58:35.136Z,34.70
2022-12-11T00:59:36.717Z,35.50
2022-12-11T01:00:39.500Z,36.45
2022-12-11T01:01:41.601Z,36.65
2022-12-11T01:02:44.032Z,33.42
2022-12-11T01:03:46.046Z,35.25
2022-12-11T01:04:47.752Z,34.30
2022-12-11T01:05:56.945Z,36.00
2022-12-11T01:06:58.636Z,33.45
2022-12-11T01:08:00.841Z,34.90
2022-12-11T01:09:21.109Z,35.22
2022-12-11T01:10:25.799Z,33.05
2022-12-11T01:11:27.611Z,32.50
2022-12-11T01:12:29.252Z,34.45
2022-12-11T01:13:34.403Z,33.00
2022-12-11T01:14:36.048Z,32.83
2022-12-11T01:15:43.900Z,32.00
2022-12-11T01:16:45.959Z,34.05
2022-12-11T01:17:47.556Z,31.90
2022-12-11T01:18:49.140Z,30.30
2022-12-11T01:19:50.667Z,31.88
2022-12-11T01:20:52.681Z,30.38
2022-12-11T01:21:54.577Z,31.60
2022-12-11T01:22:58.961Z,39.15
2022-12-11T01:24:00.802Z,37.00
2022-12-11T01:25:02.991Z,33.58
2022-12-11T01:26:14.013Z,32.90
2022-12-11T01:27:15.701Z,33.22
2022-12-11T01:28:17.663Z,31.35
2022-12-11T01:29:19.288Z,32.75
2022-12-11T01:30:23.028Z,31.85
2022-12-11T01:31:25.344Z,33.35
2022-12-11T01:32:28.907Z,31.60
2022-12-11T01:33:30.578Z,32.95
2022-12-11T01:34:33.321Z,31.38
2022-12-11T01:35:35.047Z,32.80
2022-12-11T01:36:36.743Z,33.47
2022-12-11T01:37:38.869Z,33.90
2022-12-11T01:38:41.007Z,34.85
2022-12-11T01:39:43.062Z,37.40
2022-12-11T01:40:49.273Z,37.17
2022-12-11T01:41:51.393Z,37.25
2022-12-11T01:42:53.002Z,35.05
2022-12-11T01:44:20.567Z,33.88
2022-12-11T01:45:26.738Z,34.15
2022-12-11T01:46:31.004Z,35.55
2022-12-11T01:47:32.884Z,33.97
2022-12-11T01:48:39.203Z,37.00
2022-12-11T01:49:43.933Z,36.15
2022-12-11T01:50:50.596Z,35.88
2022-12-11T01:52:08.117Z,36.03
2022-12-11T01:53:15.406Z,32.20
2022-12-11T01:54:19.274Z,34.45
2022-12-11T01:55:22.014Z,33.78
2022-12-11T01:56:25.706Z,34.20
2022-12-11T01:57:27.443Z,37.00
2022-12-11T01:58:34.209Z,36.83
2022-12-11T01:59:39.927Z,35.47
2022-12-11T02:00:43.260Z,37.13
2022-12-11T02:01:48.363Z,38.53
2022-12-11T02:02:50.028Z,42.67
2022-12-11T02:03:54.902Z,44.35
2022-12-11T02:04:56.535Z,43.25
2022-12-11T02:06:02.721Z,42.45
2022-12-11T02:07:05.817Z,42.83
2022-12-11T02:08:08.589Z,49.30
2022-12-11T02:09:14.034Z,47.67
2022-12-11T02:10:16.628Z,47.83
2022-12-11T02:11:26.169Z,44.97
2022-12-11T02:12:40.726Z,47.80
2022-12-11T02:13:57.310Z,47.40
2022-12-11T02:15:17.687Z,49.47
2022-12-11T02:16:27.375Z,48.53
2022-12-11T02:17:51.835Z,48.85
2022-12-11T02:19:08.121Z,52.35
2022-12-11T02:20:17.518Z,50.22
2022-12-11T02:21:32.754Z,48.50
2022-12-11T02:22:54.147Z,52.05
2022-12-11T02:24:29.111Z,49.95
2022-12-11T02:25:52.771Z,49.35
2022-12-11T02:27:12.530Z,48.38
2022-12-11T02:28:24.066Z,49.55
2022-12-11T02:30:01.158Z,50.58
2022-12-11T02:31:09.467Z,49.17
2022-12-11T02:32:16.486Z,49.85
2022-12-11T02:33:26.808Z,49.50
2022-12-11T02:34:37.565Z,48.58
2022-12-11T02:35:45.791Z,48.22
2022-12-11T02:36:54.065Z,50.92
2022-12-11T02:38:00.733Z,49.53
2022-12-11T02:39:04.630Z,47.15
2022-12-11T02:40:11.376Z,48.08
2022-12-11T02:41:13.665Z,47.58
2022-12-11T02:42:16.556Z,50.05
2022-12-11T02:43:21.864Z,49.10
2022-12-11T02:44:29.812Z,48.53
2022-12-11T02:45:34.030Z,48.55
2022-12-11T02:46:37.181Z,47.88
2022-12-11T02:47:39.861Z,48.20
2022-12-11T02:48:43.307Z,48.00
2022-12-11T02:49:50.475Z,49.35
2022-12-11T02:50:56.542Z,48.30
2022-12-11T02:52:02.321Z,48.90
2022-12-11T02:53:08.035Z,47.28
2022-12-11T02:54:17.330Z,47.88
2022-12-11T02:55:20.894Z,49.55
2022-12-11T02:56:30.795Z,48.22
2022-12-11T02:57:45.764Z,48.42
2022-12-11T02:58:58.179Z,47.28
2022-12-11T03:00:00.526Z,50.92
2022-12-11T03:01:03.645Z,49.60
2022-12-11T03:02:05.777Z,49.67
2022-12-11T03:03:09.490Z,48.92
2022-12-11T03:04:11.343Z,51.45
2022-12-11T03:05:14.943Z,50.40
2022-12-11T03:06:20.651Z,49.78
2022-12-11T03:07:29.572Z,48.92
2022-12-11T03:08:32.347Z,49.13
2022-12-11T03:09:33.956Z,50.92
2022-12-11T03:10:36.187Z,48.70
2022-12-11T03:11:37.786Z,47.75
2022-12-11T03:12:42.759Z,48.90
2022-12-11T03:13:45.662Z,48.67
2022-12-11T03:14:50.129Z,50.40
2022-12-11T03:16:04.752Z,50.10
2022-12-11T03:17:18.228Z,48.78
2022-12-11T03:18:31.265Z,51.58
2022-12-11T03:19:43.772Z,48.55
2022-12-11T03:20:56.110Z,49.22
2022-12-11T03:22:00.878Z,48.17
2022-12-11T03:23:11.852Z,51.50
2022-12-11T03:24:44.097Z,50.25
2022-12-11T03:25:56.507Z,52.50
2022-12-11T03:27:11.115Z,49.97
2022-12-11T03:28:24.071Z,48.65
2022-12-11T03:29:38.139Z,47.90
2022-12-11T03:30:42.297Z,50.20
2022-12-11T03:31:50.200Z,48.03
2022-12-11T03:32:57.495Z,49.70
2022-12-11T03:34:08.702Z,49.53
2022-12-11T03:35:21.530Z,50.83
2022-12-11T03:36:27.159Z,50.42
2022-12-11T03:37:33.277Z,52.33
2022-12-11T03:39:05.421Z,49.78
2022-12-11T03:40:13.268Z,50.35
2022-12-11T03:41:22.479Z,51.80
2022-12-11T03:42:26.823Z,49.72
2022-12-11T03:43:30.187Z,49.40
2022-12-11T03:44:33.564Z,49.63
2022-12-11T03:45:37.471Z,49.15
2022-12-11T03:46:41.459Z,47.80
2022-12-11T03:47:45.246Z,51.85
2022-12-11T03:48:50.728Z,49.38
2022-12-11T03:49:53.971Z,49.97
2022-12-11T03:50:57.439Z,46.17
2022-12-11T03:52:01.920Z,51.20
2022-12-11T03:53:06.314Z,48.42
2022-12-11T03:54:08.233Z,48.50
2022-12-11T03:55:15.234Z,48.58
2022-12-11T03:56:19.978Z,50.10
2022-12-11T03:57:30.383Z,48.20
2022-12-11T03:58:32.517Z,49.75
2022-12-11T03:59:35.093Z,52.45
2022-12-11T04:00:37.549Z,50.50
2022-12-11T04:01:40.081Z,48.90
2022-12-11T04:02:42.616Z,50.35
2022-12-11T04:03:44.606Z,51.03
2022-12-11T04:04:46.235Z,51.47
2022-12-11T04:05:53.797Z,51.45
2022-12-11T04:06:55.378Z,52.42
2022-12-11T04:07:56.976Z,51.13
2022-12-11T04:08:58.809Z,53.22
2022-12-11T04:10:02.554Z,51.88
2022-12-11T04:11:23.380Z,51.17
2022-12-11T04:12:25.202Z,53.70
2022-12-11T04:13:26.912Z,48.03
2022-12-11T04:14:47.546Z,49.55
2022-12-11T04:15:50.741Z,53.67
2022-12-11T04:16:53.465Z,51.75
2022-12-11T04:18:13.433Z,53.75
2022-12-11T04:19:33.816Z,51.67
2022-12-11T04:20:53.981Z,53.38
2022-12-11T04:22:34.105Z,52.25
2022-12-11T04:23:56.408Z,51.75
2022-12-11T04:24:58.203Z,52.20
2022-12-11T04:26:09.417Z,49.40
2022-12-11T04:27:11.460Z,51.70
2022-12-11T04:28:13.286Z,51.00
2022-12-11T04:29:17.060Z,53.13
2022-12-11T04:30:23.013Z,52.45
2022-12-11T04:31:24.721Z,52.90
2022-12-11T04:32:26.349Z,50.20
2022-12-11T04:33:28.710Z,49.90
2022-12-11T04:34:30.548Z,51.17
2022-12-11T04:35:32.801Z,51.55
2022-12-11T04:36:34.654Z,49.92
2022-12-11T04:37:36.935Z,53.13
2022-12-11T04:38:39.300Z,54.05
2022-12-11T04:39:41.229Z,51.85
2022-12-11T04:40:42.952Z,49.83
2022-12-11T04:41:44.889Z,47.85
2022-12-11T04:42:46.956Z,50.20
2022-12-11T04:43:48.797Z,49.60
2022-12-11T04:44:51.012Z,49.70
2022-12-11T04:46:01.484Z,54.03
2022-12-11T04:47:03.771Z,51.63
2022-12-11T04:48:05.555Z,52.58
2022-12-11T04:49:07.190Z,49.50
2022-12-11T04:50:11.588Z,52.47
2022-12-11T04:51:14.594Z,52.17
2022-12-11T04:52:18.061Z,52.50
2022-12-11T04:53:19.598Z,51.58
2022-12-11T04:54:21.499Z,52.78
2022-12-11T04:55:24.505Z,51.70
2022-12-11T04:56:26.233Z,49.03
2022-12-11T04:57:30.314Z,49.50
2022-12-11T04:58:32.073Z,46.92
2022-12-11T04:59:33.722Z,47.10
2022-12-11T05:00:38.058Z,50.13
2022-12-11T05:01:39.954Z,49.58
2022-12-11T05:02:42.112Z,49.13
2022-12-11T05:03:44.345Z,49.00
2022-12-11T05:04:46.345Z,50.70
2022-12-11T05:05:54.754Z,52.30
2022-12-11T05:06:56.545Z,53.35
2022-12-11T05:07:58.343Z,51.15
2022-12-11T05:09:00.337Z,49.63
2022-12-11T05:10:01.917Z,53.00
2022-12-11T05:11:06.785Z,53.78
2022-12-11T05:12:08.360Z,54.30
2022-12-11T05:13:10.220Z,53.75
2022-12-11T05:14:12.080Z,52.92
2022-12-11T05:15:14.149Z,53.67
2022-12-11T05:16:17.219Z,52.50
2022-12-11T05:17:20.033Z,53.92
2022-12-11T05:18:24.463Z,56.10
2022-12-11T05:19:26.337Z,55.95
2022-12-11T05:20:28.438Z,56.40
2022-12-11T05:21:34.799Z,57.20
2022-12-11T05:22:38.243Z,56.28
2022-12-11T05:23:41.441Z,57.88
2022-12-11T05:24:43.475Z,57.60
2022-12-11T05:25:52.405Z,59.15
2022-12-11T05:26:53.959Z,55.63
2022-12-11T05:27:55.683Z,54.75
2022-12-11T05:28:57.346Z,57.08
2022-12-11T05:29:59.905Z,56.00
2022-12-11T05:31:04.874Z,56.75
2022-12-11T05:32:06.707Z,56.13
2022-12-11T05:33:08.498Z,59.88
2022-12-11T05:34:10.583Z,57.40
2022-12-11T05:35:12.743Z,57.47
2022-12-11T05:36:19.255Z,57.92
2022-12-11T05:37:21.290Z,54.38
2022-12-11T05:38:24.941Z,56.63
2022-12-11T05:39:26.996Z,55.70
2022-12-11T05:40:28.926Z,58.58
2022-12-11T05:41:32.991Z,57.08
2022-12-11T05:42:35.046Z,57.60
2022-12-11T05:43:37.110Z,57.10
2022-12-11T05:44:39.043Z,56.65
2022-12-11T05:45:40.897Z,57.67
2022-12-11T05:46:46.496Z,53.75
2022-12-11T05:47:48.152Z,57.10
2022-12-11T05:48:52.107Z,53.15
2022-12-11T05:49:53.950Z,53.47
2022-12-11T05:51:00.304Z,54.88
2022-12-11T05:52:01.845Z,57.22
2022-12-11T05:53:05.431Z,56.63
2022-12-11T05:54:07.547Z,58.65
2022-12-11T05:55:09.963Z,52.72
2022-12-11T05:56:15.592Z,53.63
2022-12-11T05:57:17.646Z,55.85
2022-12-11T05:58:19.821Z,54.30
2022-12-11T05:59:21.560Z,54.80
2022-12-11T06:00:23.172Z,57.42
2022-12-11T06:01:34.100Z,60.20
2022-12-11T06:02:37.732Z,53.70
2022-12-11T06:03:39.494Z,55.83
2022-12-11T06:04:41.722Z,55.70
2022-12-11T06:05:43.399Z,52.63
2022-12-11T06:06:45.157Z,51.22
2022-12-11T06:07:46.996Z,53.35
2022-12-11T06:08:52.645Z,57.92
2022-12-11T06:09:54.366Z,56.42
2022-12-11T06:10:56.259Z,53.55
2022-12-11T06:11:58.686Z,54.20
2022-12-11T06:13:00.701Z,54.42
2022-12-11T06:14:03.812Z,52.50
2022-12-11T06:15:06.323Z,54.70
2022-12-11T06:16:09.349Z,52.85
2022-12-11T06:17:11.273Z,53.17
2022-12-11T06:18:13.228Z,53.03
2022-12-11T06:19:20.287Z,55.00
2022-12-11T06:20:22.334Z,53.08
2022-12-11T06:21:28.636Z,50.97
2022-12-11T06:22:30.588Z,51.95
2022-12-11T06:23:32.440Z,52.05
2022-12-11T06:24:34.086Z,50.55
2022-12-11T06:25:39.931Z,47.95
2022-12-11T06:26:44.758Z,53.83
2022-12-11T06:27:46.746Z,54.45
2022-12-11T06:28:49.482Z,51.60
2022-12-11T06:29:53.259Z,48.88
2022-12-11T06:30:56.172Z,51.63
2022-12-11T06:31:58.497Z,51.42
2022-12-11T06:33:00.690Z,52.28
2022-12-11T06:34:02.552Z,54.78
2022-12-11T06:35:05.189Z,53.03
2022-12-11T06:36:10.433Z,52.60
2022-12-11T06:37:12.363Z,51.65
2022-12-11T06:38:14.169Z,52.17
2022-12-11T06:39:16.036Z,50.20
2022-12-11T06:40:17.737Z,54.35
2022-12-11T06:41:20.551Z,53.88
2022-12-11T06:42:22.337Z,54.92
2022-12-11T06:43:24.823Z,53.60
2022-12-11T06:44:26.447Z,57.83
2022-12-11T06:45:28.734Z,58.20
2022-12-11T06:46:30.488Z,55.97
2022-12-11T06:47:33.362Z,56.15
2022-12-11T06:48:37.469Z,56.30
2022-12-11T06:49:39.381Z,54.28
2022-12-11T06:50:41.070Z,54.45
2022-12-11T06:51:46.845Z,56.97
2022-12-11T06:52:48.435Z,58.83
2022-12-11T06:53:56.827Z,57.22
2022-12-11T06:55:00.138Z,57.92
2022-12-11T06:56:03.810Z,58.30
2022-12-11T06:57:05.878Z,57.80
2022-12-11T06:58:10.021Z,63.10
2022-12-11T06:59:14.867Z,62.13
2022-12-11T07:00:16.805Z,59.28
2022-12-11T07:01:21.487Z,60.40
2022-12-11T07:02:26.065Z,60.10
2022-12-11T07:03:28.703Z,60.63
2022-12-11T07:04:31.123Z,62.13
2022-12-11T07:05:34.659Z,58.97
2022-12-11T07:06:36.375Z,58.55
2022-12-11T07:07:39.530Z,58.65
2022-12-11T07:08:44.498Z,55.75
2022-12-11T07:09:46.227Z,57.15
2022-12-11T07:10:48.433Z,57.38
2022-12-11T07:11:51.991Z,57.78
2022-12-11T07:12:54.518Z,56.60
2022-12-11T07:14:00.104Z,55.90
2022-12-11T07:15:02.035Z,57.28
2022-12-11T07:16:10.048Z,59.13
2022-12-11T07:17:11.785Z,57.53
2022-12-11T07:18:14.865Z,58.75
2022-12-11T07:19:17.129Z,56.40
2022-12-11T07:20:37.494Z,58.47
2022-12-11T07:21:42.660Z,53.55
2022-12-11T07:22:52.653Z,59.55
2022-12-11T07:23:57.772Z,58.13
2022-12-11T07:25:06.321Z,53.95
2022-12-11T07:26:16.993Z,58.30
2022-12-11T07:27:19.788Z,54.90
2022-12-11T07:28:21.495Z,53.95
2022-12-11T07:29:23.262Z,53.53
2022-12-11T07:30:27.346Z,52.05
2022-12-11T07:31:31.644Z,52.65
2022-12-11T07:32:33.414Z,51.75
2022-12-11T07:33:38.654Z,52.60
2022-12-11T07:34:51.424Z,53.35
2022-12-11T07:35:55.170Z,53.55
2022-12-11T07:36:56.755Z,58.28
2022-12-11T07:37:59.861Z,55.88
2022-12-11T07:39:01.601Z,57.75
2022-12-11T07:40:12.640Z,55.75
2022-12-11T07:41:17.875Z,59.45
2022-12-11T07:42:19.765Z,57.70
2022-12-11T07:43:21.738Z,59.42
2022-12-11T07:44:23.572Z,58.38
2022-12-11T07:45:26.464Z,62.60
2022-12-11T07:46:30.085Z,61.97
2022-12-11T07:47:31.984Z,55.03
2022-12-11T07:48:43.112Z,52.47
2022-12-11T07:49:44.999Z,54.55
2022-12-11T07:50:47.041Z,57.55
2022-12-11T07:51:48.866Z,55.78
2022-12-11T07:52:50.363Z,54.20
2022-12-11T07:53:54.788Z,54.65
2022-12-11T07:54:56.876Z,62.45
2022-12-11T07:55:59.890Z,63.85
2022-12-11T07:57:02.024Z,64.55
2022-12-11T07:58:04.490Z,58.10
2022-12-11T07:59:06.918Z,54.00
2022-12-11T08:00:09.161Z,57.08
2022-12-11T08:01:22.464Z,61.65
2022-12-11T08:02:24.361Z,61.90
2022-12-11T08:03:26.126Z,63.22
2022-12-11T08:04:28.475Z,58.53
2022-12-11T08:05:30.841Z,60.92
2022-12-11T08:06:35.090Z,67.50
2022-12-11T08:07:38.241Z,65.07
2022-12-11T08:08:41.478Z,60.55
2022-12-11T08:09:43.394Z,64.00
2022-12-11T08:10:48.344Z,57.67
2022-12-11T08:11:51.501Z,61.97
2022-12-11T08:12:59.899Z,61.28
2022-12-11T08:14:03.493Z,56.45
2022-12-11T08:15:06.660Z,53.33
2022-12-11T08:16:11.975Z,56.33
2022-12-11T08:17:14.272Z,55.72
2022-12-11T08:18:17.742Z,55.63
2022-12-11T08:19:20.684Z,54.70
2022-12-11T08:20:24.133Z,55.40
2022-12-11T08:21:31.032Z,54.58
2022-12-11T08:22:33.475Z,52.53
2022-12-11T08:23:35.308Z,53.72
2022-12-11T08:24:37.005Z,53.53
2022-12-11T08:25:43.117Z,53.10
2022-12-11T08:26:44.731Z,51.88
2022-12-11T08:27:46.319Z,50.38
2022-12-11T08:28:48.180Z,52.50
2022-12-11T08:29:49.761Z,52.13
2022-12-11T08:30:51.537Z,55.08
2022-12-11T08:31:53.556Z,49.83
2022-12-11T08:32:55.493Z,52.88
2022-12-11T08:33:57.864Z,46.55
2022-12-11T08:34:59.664Z,51.10
2022-12-11T08:36:08.219Z,46.80
2022-12-11T08:37:09.863Z,50.08
2022-12-11T08:38:15.322Z,51.13
2022-12-11T08:39:17.121Z,51.47
2022-12-11T08:40:18.870Z,49.85
2022-12-11T08:41:23.158Z,46.22
2022-12-11T08:42:24.826Z,48.30
2022-12-11T08:43:26.779Z,50.15
2022-12-11T08:44:28.548Z,49.00
2022-12-11T08:45:34.523Z,48.45
2022-12-11T08:46:37.407Z,46.80
2022-12-11T08:47:39.012Z,50.67
2022-12-11T08:48:42.732Z,49.50
2022-12-11T08:49:44.728Z,48.90
2022-12-11T08:50:46.583Z,48.33
2022-12-11T08:51:48.367Z,51.17
2022-12-11T08:52:51.291Z,48.13
2022-12-11T08:53:55.401Z,49.17
2022-12-11T08:54:58.302Z,46.53
2022-12-11T08:56:03.796Z,47.13
2022-12-11T08:57:06.548Z,45.63
2022-12-11T08:58:09.100Z,47.70
2022-12-11T08:59:11.111Z,50.83
2022-12-11T09:00:14.334Z,50.00
2022-12-11T09:01:21.815Z,50.00
2022-12-11T09:02:24.066Z,52.28
2022-12-11T09:03:26.379Z,52.78
2022-12-11T09:04:28.346Z,49.25
2022-12-11T09:05:33.844Z,50.53
2022-12-11T09:06:36.118Z,52.70
2022-12-11T09:07:42.503Z,50.10
2022-12-11T09:08:51.953Z,53.42
2022-12-11T09:09:55.914Z,49.65
2022-12-11T09:11:06.935Z,50.00
2022-12-11T09:12:10.092Z,48.88
2022-12-11T09:13:11.716Z,47.17
2022-12-11T09:14:13.507Z,46.28
2022-12-11T09:15:15.537Z,48.13
2022-12-11T09:16:20.864Z,49.17
2022-12-11T09:17:22.861Z,49.40
2022-12-11T09:18:24.731Z,48.80
2022-12-11T09:19:32.083Z,47.40
2022-12-11T09:20:37.236Z,45.75
2022-12-11T09:21:38.871Z,45.63
2022-12-11T09:22:42.962Z,44.88
2022-12-11T09:23:45.486Z,43.45
2022-12-11T09:24:47.409Z,46.60
2022-12-11T09:25:48.937Z,44.53
2022-12-11T09:26:50.774Z,45.92
2022-12-11T09:27:52.310Z,42.88
2022-12-11T09:28:55.354Z,44.38
2022-12-11T09:29:57.015Z,46.13
2022-12-11T09:30:59.093Z,42.95
2022-12-11T09:32:01.005Z,43.22
2022-12-11T09:33:02.940Z,42.28
2022-12-11T09:34:08.087Z,38.35
2022-12-11T09:35:10.675Z,41.78
2022-12-11T09:36:13.453Z,39.60
2022-12-11T09:37:15.293Z,41.35
2022-12-11T09:38:17.242Z,42.05
2022-12-11T09:39:19.715Z,42.30
2022-12-11T09:40:21.438Z,40.97
2022-12-11T09:41:23.184Z,44.10
2022-12-11T09:43:05.317Z,44.25
2022-12-11T09:44:23.402Z,43.33
2022-12-11T09:45:25.304Z,41.05
2022-12-11T09:46:33.909Z,42.63
2022-12-11T09:47:41.834Z,45.97
2022-12-11T09:48:49.115Z,45.33
2022-12-11T09:49:58.806Z,43.80
2022-12-11T09:51:13.165Z,42.67
2022-12-11T09:52:24.027Z,41.42
2022-12-11T09:53:34.430Z,41.90
2022-12-11T09:54:37.202Z,38.22
2022-12-11T09:55:51.336Z,42.03
2022-12-11T09:57:03.774Z,39.47
2022-12-11T09:58:05.356Z,36.53
2022-12-11T09:59:11.708Z,38.65
2022-12-11T10:00:24.786Z,38.50
2022-12-11T10:01:56.088Z,40.15
2022-12-11T10:03:16.572Z,38.42
2022-12-11T10:04:36.268Z,39.67
2022-12-11T10:05:44.326Z,38.22
2022-12-11T10:07:06.413Z,38.00
2022-12-11T10:08:46.468Z,37.33
2022-12-11T10:10:07.701Z,39.08
2022-12-11T10:11:56.092Z,35.67
2022-12-11T10:13:09.257Z,34.83
2022-12-11T10:14:22.792Z,35.95
2022-12-11T10:15:40.159Z,38.17
2022-12-11T10:16:53.093Z,37.83
2022-12-11T10:18:04.391Z,38.45
2022-12-11T10:19:25.015Z,40.22
2022-12-11T10:20:33.607Z,38.50
2022-12-11T10:21:42.677Z,37.92
2022-12-11T10:22:45.656Z,36.35
2022-12-11T10:24:03.694Z,37.80
2022-12-11T10:25:18.963Z,36.45
2022-12-11T10:26:23.401Z,39.40
2022-12-11T10:27:33.110Z,33.47
2022-12-11T10:28:35.748Z,33.17
2022-12-11T10:29:37.532Z,34.45
2022-12-11T10:30:46.121Z,34.05
2022-12-11T10:31:54.703Z,32.20
2022-12-11T10:33:22.818Z,33.10
2022-12-11T10:34:32.137Z,29.80
2022-12-11T10:35:40.943Z,29.80
2022-12-11T10:36:43.504Z,29.88
2022-12-11T10:37:45.537Z,30.50
2022-12-11T10:38:47.617Z,30.30
2022-12-11T10:39:49.544Z,30.77
2022-12-11T10:40:56.012Z,29.20
2022-12-11T10:41:58.616Z,30.80
2022-12-11T10:43:01.332Z,30.02
2022-12-11T10:44:15.654Z,29.95
2022-12-11T10:45:17.854Z,29.25
2022-12-11T10:46:21.072Z,29.88
2022-12-11T10:47:24.102Z,28.10
2022-12-11T10:48:26.776Z,28.42
2022-12-11T10:49:31.774Z,28.52
2022-12-11T10:50:34.313Z,26.30
2022-12-11T10:51:38.146Z,27.35
2022-12-11T10:52:45.236Z,25.27
2022-12-11T10:53:53.855Z,27.30
2022-12-11T10:55:02.582Z,26.58
2022-12-11T10:56:04.935Z,25.42
2022-12-11T10:57:14.235Z,26.50
2022-12-11T10:58:23.212Z,27.40
2022-12-11T10:59:45.319Z,26.88
2022-12-11T11:01:10.089Z,27.23
2022-12-11T11:02:29.004Z,27.73
2022-12-11T11:03:32.597Z,27.70
2022-12-11T11:04:41.808Z,28.77
2022-12-11T11:05:49.188Z,29.55
2022-12-11T11:07:21.085Z,29.63
2022-12-11T11:08:24.251Z,27.00
2022-12-11T11:09:36.383Z,28.42
2022-12-11T11:10:38.432Z,26.92
2022-12-11T11:11:40.475Z,28.27
2022-12-11T11:12:47.992Z,27.98
2022-12-11T11:13:51.005Z,27.23
2022-12-11T11:15:06.054Z,28.38
2022-12-11T11:16:13.581Z,33.45
2022-12-11T11:17:17.512Z,27.38
2022-12-11T11:18:28.766Z,27.95
2022-12-11T11:19:36.665Z,28.30
2022-12-11T11:20:47.830Z,29.20
2022-12-11T11:21:59.667Z,29.13
2022-12-11T11:23:11.647Z,30.95
2022-12-11T11:24:27.029Z,30.23
2022-12-11T11:25:31.462Z,30.17
2022-12-11T11:27:11.247Z,28.63
2022-12-11T11:28:04.123Z,29.45
2022-12-11T11:29:07.241Z,31.20
2022-12-11T11:30:30.865Z,32.40
2022-12-11T11:31:35.942Z,29.65
2022-12-11T11:32:39.808Z,31.27
2022-12-11T11:34:03.308Z,30.13
2022-12-11T11:35:11.673Z,34.00
2022-12-11T11:36:23.478Z,29.85
2022-12-11T11:37:34.635Z,31.35
2022-12-11T11:38:40.523Z,30.60
2022-12-11T11:39:45.273Z,29.95
2022-12-11T11:41:14.672Z,31.83
2022-12-11T11:42:27.588Z,29.90
2022-12-11T11:43:32.288Z,32.08
2022-12-11T11:44:41.529Z,32.10
2022-12-11T11:46:11.640Z,31.45
2022-12-11T11:47:37.743Z,30.25
2022-12-11T11:48:48.923Z,28.42
2022-12-11T11:50:03.752Z,29.40
2022-12-11T11:51:17.055Z,28.27
2022-12-11T11:52:35.786Z,27.73
2022-12-11T11:53:40.653Z,26.27
2022-12-11T11:55:11.100Z,26.95
2022-12-11T11:56:36.491Z,26.80
2022-12-11T11:57:58.679Z,25.92
2022-12-11T11:59:15.838Z,27.10
2022-12-11T12:00:18.686Z,25.58
2022-12-11T12:01:22.283Z,24.88
2022-12-11T12:02:24.368Z,24.98
2022-12-11T12:03:27.901Z,26.80
2022-12-11T12:04:35.443Z,27.65
2022-12-11T12:06:06.227Z,27.60
2022-12-11T12:07:16.319Z,28.25
2022-12-11T12:08:27.220Z,28.50
2022-12-11T12:09:38.908Z,26.83
2022-12-11T12:11:23.183Z,30.15
2022-12-11T12:12:43.864Z,27.70
2022-12-11T12:14:17.387Z,29.35
2022-12-11T12:15:35.715Z,28.33
2022-12-11T12:16:56.427Z,25.98
2022-12-11T12:18:16.553Z,28.58
2022-12-11T12:19:37.024Z,26.00
2022-12-11T12:20:39.671Z,29.17
2022-12-11T12:21:47.035Z,28.75
2022-12-11T12:23:05.450Z,28.17
2022-12-11T12:24:11.451Z,29.42
2022-12-11T12:25:37.781Z,40.83
2022-12-11T12:26:50.566Z,58.08
2022-12-11T12:28:11.074Z,37.13
2022-12-11T12:29:48.630Z,30.48
2022-12-11T12:31:08.392Z,31.02
2022-12-11T12:32:27.309Z,28.95
2022-12-11T12:33:35.154Z,31.67
2022-12-11T12:34:44.747Z,31.85
2022-12-11T12:36:03.455Z,28.90
2022-12-11T12:37:29.572Z,32.20
2022-12-11T12:39:10.715Z,32.60
2022-12-11T12:40:37.087Z,30.60
2022-12-11T12:42:27.428Z,32.40
2022-12-11T12:44:18.132Z,30.20
2022-12-11T12:46:07.227Z,27.75
2022-12-11T12:47:15.357Z,28.55
2022-12-11T12:48:17.539Z,27.77
2022-12-11T12:49:42.918Z,29.83
2022-12-11T12:50:48.901Z,28.63
2022-12-11T12:51:52.373Z,27.88
2022-12-11T12:52:55.634Z,28.45
2022-12-11T12:54:00.707Z,30.63
2022-12-11T12:55:26.021Z,31.90
2022-12-11T12:56:30.645Z,27.75
2022-12-11T12:57:35.366Z,32.22
2022-12-11T12:58:45.691Z,28.10
2022-12-11T12:59:54.326Z,29.25
2022-12-11T13:01:12.208Z,28.00
2022-12-11T13:02:17.931Z,31.08
2022-12-11T13:03:30.552Z,31.58
2022-12-11T13:04:56.853Z,28.00
2022-12-11T13:06:03.534Z,28.75
2022-12-11T13:07:20.569Z,28.25
2022-12-11T13:08:34.697Z,30.83
2022-12-11T13:09:40.763Z,30.15
2022-12-11T13:10:43.689Z,29.45
2022-12-11T13:11:47.200Z,31.55
2022-12-11T13:12:49.410Z,30.73
2022-12-11T13:14:28.720Z,31.58
2022-12-11T13:15:31.470Z,34.53
2022-12-11T13:16:44.377Z,31.90
2022-12-11T13:17:46.196Z,31.30
2022-12-11T13:18:49.314Z,31.73
2022-12-11T13:20:09.710Z,29.58
2022-12-11T13:21:34.016Z,29.05
2022-12-11T13:22:35.770Z,28.63
2022-12-11T13:23:40.583Z,30.70
2022-12-11T13:25:04.766Z,35.90
2022-12-11T13:26:06.455Z,31.52
2022-12-11T13:27:22.383Z,31.20
2022-12-11T13:28:27.844Z,31.08
2022-12-11T13:29:40.445Z,30.60
2022-12-11T13:30:43.774Z,31.83
2022-12-11T13:31:45.777Z,31.30
2022-12-11T13:33:07.417Z,30.45
2022-12-11T13:34:17.879Z,31.13
2022-12-11T13:35:20.572Z,29.52
2022-12-11T13:36:36.168Z,30.75
2022-12-11T13:37:44.746Z,31.40
2022-12-11T13:38:51.903Z,31.58
2022-12-11T13:39:54.925Z,33.60
2022-12-11T13:40:57.873Z,32.10
2022-12-11T13:42:05.627Z,32.10
2022-12-11T13:43:17.784Z,29.90
2022-12-11T13:44:33.610Z,29.70
2022-12-11T13:45:55.375Z,30.75
2022-12-11T13:47:00.009Z,31.63
2022-12-11T13:48:02.301Z,33.80
2022-12-11T13:49:07.294Z,33.22
2022-12-11T13:50:22.071Z,30.88
2022-12-11T13:51:26.079Z,30.33
2022-12-11T13:52:28.679Z,32.88
2022-12-11T13:53:30.509Z,34.55
2022-12-11T13:54:36.828Z,31.63
2022-12-11T13:55:38.606Z,30.90
2022-12-11T13:56:40.716Z,29.13
2022-12-11T13:57:46.409Z,35.47
2022-12-11T13:58:49.795Z,33.63
2022-12-11T13:59:54.548Z,31.30
2022-12-11T14:01:14.502Z,30.35
2022-12-11T14:02:24.257Z,30.77
2022-12-11T14:03:26.208Z,30.10
2022-12-11T14:04:29.576Z,31.63
2022-12-11T14:05:32.030Z,29.83
2022-12-11T14:06:35.925Z,28.48
2022-12-11T14:07:48.653Z,32.42
2022-12-11T14:08:55.315Z,30.73
2022-12-11T14:10:10.120Z,30.00
2022-12-11T14:11:22.313Z,31.23
2022-12-11T14:12:24.893Z,31.38
2022-12-11T14:13:31.995Z,33.35
2022-12-11T14:14:49.871Z,31.40
2022-12-11T14:15:52.898Z,32.67
2022-12-11T14:16:55.255Z,35.35
2022-12-11T14:17:59.772Z,33.38
2022-12-11T14:19:12.841Z,34.80
2022-12-11T14:20:22.153Z,35.72
2022-12-11T14:21:26.549Z,32.85